Time;durP1;ratioP1;P1;durP2;ratioP2;P2;SDS_P1;SDS_P2;PMS_P1;PMS_P2;Temp;Humidity;BMP_temperature;BMP_pressure;BME280_temperature;BME280_humidity;BME280_pressure;Samples;Min_cycle;Max_cycle;Signal;HPM_P1;HPM_P2
2023/09/08 00:00:56;;;;;;;6.38;2.58;;;26.90;99.90;;;;;;5091784;28;20024;-51
2023/09/08 00:03:22;;;;;;;4.18;2.60;;;26.90;99.90;;;;;;5091802;28;20073;-51
2023/09/08 00:05:48;;;;;;;6.10;2.58;;;26.90;99.90;;;;;;5091990;28;20099;-51
2023/09/08 00:08:14;;;;;;;6.63;3.10;;;26.90;99.90;;;;;;5090744;28;20032;-51
2023/09/08 00:10:40;;;;;;;4.95;2.78;;;26.80;99.90;;;;;;5092077;28;20016;-51
2023/09/08 00:13:06;;;;;;;7.63;3.00;;;26.90;99.90;;;;;;5090548;28;20169;-51
2023/09/08 00:15:35;;;;;;;5.45;2.80;;;26.90;99.90;;;;;;5091478;28;20086;-51
2023/09/08 00:18:01;;;;;;;7.97;3.67;;;26.80;99.90;;;;;;5090460;28;20107;-51
2023/09/08 00:20:27;;;;;;;5.40;2.78;;;26.80;99.90;;;;;;5091464;28;20107;-51
2023/09/08 00:22:52;;;;;;;4.55;3.05;;;26.80;99.90;;;;;;5093792;28;20024;-50
2023/09/08 00:25:18;;;;;;;8.38;3.10;;;26.80;99.90;;;;;;5095328;28;20030;-51
2023/09/08 00:27:44;;;;;;;10.30;3.28;;;26.90;99.90;;;;;;5095215;28;20434;-51
2023/09/08 00:30:10;;;;;;;5.40;3.17;;;26.90;99.90;;;;;;5095437;28;20028;-51
2023/09/08 00:32:36;;;;;;;7.35;3.17;;;26.90;99.90;;;;;;5095179;28;20569;-51
2023/09/08 00:35:02;;;;;;;8.88;3.53;;;26.90;99.90;;;;;;5095102;28;20036;-50
2023/09/08 00:37:27;;;;;;;7.97;2.75;;;26.90;99.90;;;;;;5094995;28;20361;-51
2023/09/08 00:39:53;;;;;;;4.25;2.38;;;26.90;99.90;;;;;;5094977;28;20388;-51
2023/09/08 00:42:19;;;;;;;7.70;3.05;;;26.90;99.90;;;;;;5093791;28;20027;-51
2023/09/08 00:44:45;;;;;;;5.32;2.70;;;26.90;99.90;;;;;;5076854;28;20039;-51
2023/09/08 00:47:11;;;;;;;8.45;3.15;;;26.90;99.90;;;;;;5095110;28;20490;-51
2023/09/08 00:49:37;;;;;;;4.63;3.22;;;26.90;99.90;;;;;;5094856;28;20035;-51
2023/09/08 00:52:03;;;;;;;6.60;3.08;;;26.90;99.90;;;;;;5094777;28;20032;-51
2023/09/08 00:54:30;;;;;;;8.88;3.05;;;26.90;99.90;;;;;;5094586;28;20039;-51
2023/09/08 00:56:57;;;;;;;7.38;2.55;;;26.90;99.90;;;;;;5093535;28;20032;-51
2023/09/08 00:59:24;;;;;;;6.05;2.60;;;26.90;99.90;;;;;;5094735;28;20103;-51
2023/09/08 01:01:50;;;;;;;10.55;3.28;;;26.90;99.90;;;;;;5067276;22;20553;-53
2023/09/08 01:04:16;;;;;;;7.13;2.95;;;26.90;99.90;;;;;;5034529;28;20092;-53
2023/09/08 01:06:42;;;;;;;6.53;2.75;;;26.90;99.90;;;;;;5034678;28;20053;-54
2023/09/08 01:09:10;;;;;;;6.32;2.67;;;26.90;99.90;;;;;;5034415;28;20029;-53
2023/09/08 01:11:36;;;;;;;7.03;2.50;;;26.90;99.90;;;;;;5034209;28;20045;-54
2023/09/08 01:14:02;;;;;;;8.63;2.50;;;26.90;99.90;;;;;;5034293;28;20059;-53
2023/09/08 01:16:28;;;;;;;4.95;2.95;;;26.80;99.90;;;;;;5034221;28;20572;-52
2023/09/08 01:18:55;;;;;;;7.60;2.60;;;26.90;99.90;;;;;;5034197;28;20018;-53
2023/09/08 01:21:30;;;;;;;5.32;2.65;;;26.90;99.90;;;;;;5034185;28;20034;-53
2023/09/08 01:24:30;;;;;;;6.80;2.63;;;26.90;99.90;;;;;;5034134;28;20017;-52
2023/09/08 01:26:56;;;;;;;7.30;3.50;;;26.80;99.90;;;;;;5033983;28;20548;-52
2023/09/08 01:29:25;;;;;;;5.10;2.63;;;26.80;99.90;;;;;;5034215;28;20075;-53
2023/09/08 01:31:51;;;;;;;11.55;2.75;;;26.80;99.90;;;;;;5034008;28;20504;-53
2023/09/08 01:34:18;;;;;;;8.20;3.10;;;26.80;99.90;;;;;;5033731;28;20377;-52
2023/09/08 01:36:45;;;;;;;7.10;2.63;;;26.80;99.90;;;;;;5032916;28;20037;-52
2023/09/08 01:39:11;;;;;;;3.60;2.80;;;26.80;99.90;;;;;;5033792;28;20025;-52
2023/09/08 01:41:37;;;;;;;6.70;3.13;;;26.80;99.90;;;;;;5049190;28;20242;-52
2023/09/08 01:44:10;;;;;;;7.18;2.67;;;26.80;99.90;;;;;;5033791;28;20056;-52
2023/09/08 01:46:35;;;;;;;5.28;2.80;;;26.80;99.90;;;;;;5033766;28;20041;-52
2023/09/08 01:49:01;;;;;;;5.60;3.10;;;26.80;99.90;;;;;;5033774;28;20029;-54
2023/09/08 01:51:27;;;;;;;5.82;2.78;;;26.80;99.90;;;;;;5033511;28;20031;-54
2023/09/08 01:53:53;;;;;;;6.78;3.03;;;26.80;99.90;;;;;;5033587;28;20032;-55
2023/09/08 01:56:18;;;;;;;6.40;2.88;;;26.70;99.90;;;;;;5032166;28;20037;-53
2023/09/08 01:58:44;;;;;;;5.50;2.88;;;26.70;99.90;;;;;;5033806;28;20017;-54
2023/09/08 02:01:10;;;;;;;5.03;2.90;;;26.70;99.90;;;;;;5033815;28;20053;-54
2023/09/08 02:03:36;;;;;;;10.38;3.30;;;26.70;99.90;;;;;;5033261;28;20052;-53
2023/09/08 02:06:02;;;;;;;7.38;3.28;;;26.70;99.90;;;;;;5033359;28;20060;-53
2023/09/08 02:08:27;;;;;;;6.28;3.30;;;26.70;99.90;;;;;;5033165;28;20056;-53
2023/09/08 02:10:53;;;;;;;7.20;3.00;;;26.70;99.90;;;;;;5033200;28;20017;-52
2023/09/08 02:13:19;;;;;;;10.30;3.63;;;26.70;99.90;;;;;;5033209;28;20501;-51
2023/09/08 02:15:45;;;;;;;7.60;3.63;;;26.70;99.90;;;;;;5033312;28;20366;-52
2023/09/08 02:18:11;;;;;;;10.23;3.10;;;26.60;99.90;;;;;;5032935;28;20022;-53
2023/09/08 02:20:37;;;;;;;9.10;3.22;;;26.70;99.90;;;;;;5032974;28;20087;-52
2023/09/08 02:23:07;;;;;;;7.78;3.28;;;26.70;99.90;;;;;;5032956;28;20389;-54
2023/09/08 02:25:33;;;;;;;8.20;2.88;;;26.70;99.90;;;;;;5033080;28;20033;-53
2023/09/08 02:27:59;;;;;;;8.98;3.47;;;26.70;99.90;;;;;;5033007;28;20018;-53
2023/09/08 02:30:24;;;;;;;7.10;3.22;;;26.70;99.90;;;;;;5033123;28;20087;-54
2023/09/08 02:32:50;;;;;;;6.05;3.20;;;26.60;99.90;;;;;;5032840;28;20035;-53
2023/09/08 02:35:16;;;;;;;5.93;3.22;;;26.60;99.90;;;;;;5033000;28;20439;-54
2023/09/08 02:37:42;;;;;;;10.95;4.70;;;26.60;99.90;;;;;;5048189;28;20420;-54
2023/09/08 02:40:08;;;;;;;8.45;3.75;;;26.60;99.90;;;;;;5032776;28;20024;-54
2023/09/08 02:42:33;;;;;;;7.88;3.50;;;26.60;99.90;;;;;;5032849;28;20100;-54
2023/09/08 02:44:59;;;;;;;7.95;3.38;;;26.60;99.90;;;;;;5032239;28;20053;-54
2023/09/08 02:47:25;;;;;;;6.93;3.38;;;26.50;99.90;;;;;;5032438;28;20033;-54
2023/09/08 02:49:51;;;;;;;5.72;3.25;;;26.50;99.90;;;;;;5032753;28;20029;-53
2023/09/08 02:52:19;;;;;;;9.68;3.83;;;26.60;99.90;;;;;;5032696;28;20124;-54
2023/09/08 02:54:45;;;;;;;7.30;3.10;;;26.50;99.90;;;;;;5032511;28;20025;-54
2023/09/08 02:57:11;;;;;;;6.55;3.58;;;26.50;99.90;;;;;;5032459;28;20385;-54
2023/09/08 02:59:37;;;;;;;5.55;3.15;;;26.50;99.90;;;;;;5032461;28;20036;-54
2023/09/08 03:02:03;;;;;;;4.70;3.25;;;26.50;99.90;;;;;;5044281;22;20046;-50
2023/09/08 03:04:29;;;;;;;7.65;3.53;;;26.50;99.90;;;;;;5032125;28;20024;-51
2023/09/08 03:06:54;;;;;;;5.70;3.40;;;26.50;99.90;;;;;;5032320;28;20108;-50
2023/09/08 03:09:20;;;;;;;4.70;2.95;;;26.40;99.90;;;;;;5032410;28;20026;-50
2023/09/08 03:11:46;;;;;;;5.78;3.58;;;26.40;99.90;;;;;;5030878;28;20030;-50
2023/09/08 03:14:12;;;;;;;6.95;3.20;;;26.40;99.90;;;;;;5032059;28;20393;-50
2023/09/08 03:16:37;;;;;;;7.75;3.67;;;26.40;99.90;;;;;;5030755;28;20049;-50
2023/09/08 03:19:03;;;;;;;9.13;3.88;;;26.40;99.90;;;;;;5032205;28;20033;-50
2023/09/08 03:21:29;;;;;;;5.75;3.42;;;26.40;99.90;;;;;;5031998;28;20498;-50
2023/09/08 03:23:55;;;;;;;6.60;3.25;;;26.40;99.90;;;;;;5032147;28;20072;-50
2023/09/08 03:26:20;;;;;;;10.80;3.83;;;26.30;99.90;;;;;;5030874;28;20358;-50
2023/09/08 03:28:46;;;;;;;6.30;3.17;;;26.30;99.90;;;;;;5032048;28;20033;-50
2023/09/08 03:31:12;;;;;;;13.13;4.45;;;26.30;99.90;;;;;;5032096;28;20025;-50
2023/09/08 03:33:38;;;;;;;11.77;3.85;;;26.30;99.90;;;;;;5031923;28;20061;-50
2023/09/08 03:36:04;;;;;;;7.15;3.42;;;26.30;99.90;;;;;;5030611;28;20071;-50
2023/09/08 03:38:30;;;;;;;11.68;3.70;;;26.30;99.90;;;;;;5032021;28;20095;-51
2023/09/08 03:40:56;;;;;;;8.25;4.35;;;26.30;99.90;;;;;;5031924;28;20032;-51
2023/09/08 03:43:22;;;;;;;5.68;3.60;;;26.30;99.90;;;;;;5030929;28;20028;-51
2023/09/08 03:45:48;;;;;;;7.95;3.10;;;26.30;99.90;;;;;;5031713;28;20030;-50
2023/09/08 03:48:13;;;;;;;8.35;3.42;;;26.30;99.90;;;;;;5031778;28;20440;-51
2023/09/08 03:50:39;;;;;;;8.60;3.85;;;26.30;99.90;;;;;;5031786;28;20099;-51
2023/09/08 03:53:05;;;;;;;9.00;3.70;;;26.30;99.90;;;;;;5031697;28;20021;-51
2023/09/08 03:55:31;;;;;;;12.13;3.75;;;26.30;99.90;;;;;;5031772;28;20125;-51
2023/09/08 03:57:57;;;;;;;10.32;4.05;;;26.30;99.90;;;;;;5034214;28;20492;-51
2023/09/08 04:00:23;;;;;;;15.70;3.15;;;26.30;99.90;;;;;;5035955;28;20103;-50
2023/09/08 04:02:49;;;;;;;11.45;4.32;;;26.30;99.90;;;;;;5033518;28;20374;-49
2023/09/08 04:05:17;;;;;;;14.27;4.23;;;26.40;99.90;;;;;;5034212;28;20029;-50
2023/09/08 04:07:43;;;;;;;14.38;4.25;;;26.40;99.90;;;;;;5033622;28;20385;-50
2023/09/08 04:10:09;;;;;;;14.55;4.18;;;26.40;99.90;;;;;;5033854;28;20117;-50
2023/09/08 04:12:34;;;;;;;6.07;3.17;;;26.50;99.90;;;;;;5031157;28;20366;-50
2023/09/08 04:15:00;;;;;;;7.90;3.60;;;26.60;99.90;;;;;;5035186;28;20075;-50
2023/09/08 04:17:26;;;;;;;4.47;3.10;;;26.60;99.90;;;;;;5034015;28;20104;-51
2023/09/08 04:19:52;;;;;;;5.70;3.10;;;26.70;99.90;;;;;;5035637;28;20025;-52
2023/09/08 04:22:18;;;;;;;7.50;3.13;;;26.70;99.90;;;;;;5035180;28;20025;-51
2023/09/08 04:24:43;;;;;;;12.85;3.80;;;26.80;99.90;;;;;;5035240;28;20503;-51
2023/09/08 04:27:10;;;;;;;6.43;3.30;;;26.90;99.90;;;;;;5035155;28;20022;-51
2023/09/08 04:29:36;;;;;;;7.82;3.63;;;26.90;99.90;;;;;;5034930;28;20025;-51
2023/09/08 04:32:08;;;;;;;6.15;3.30;;;26.90;99.90;;;;;;5035039;28;20022;-51
2023/09/08 04:34:37;;;;;;;7.22;3.80;;;27.00;99.90;;;;;;5034719;28;20025;-51
2023/09/08 04:37:03;;;;;;;7.15;3.50;;;27.00;99.90;;;;;;5035062;28;20029;-51
2023/09/08 04:39:29;;;;;;;6.70;3.08;;;27.00;99.90;;;;;;5035107;28;20029;-51
2023/09/08 04:41:55;;;;;;;5.75;3.10;;;27.10;99.90;;;;;;5033827;28;20033;-51
2023/09/08 04:44:20;;;;;;;10.90;3.60;;;27.10;99.90;;;;;;5033376;28;20104;-51
2023/09/08 04:46:46;;;;;;;7.57;3.33;;;27.10;99.90;;;;;;5034795;28;20564;-50
2023/09/08 04:49:12;;;;;;;8.82;3.40;;;27.20;99.90;;;;;;5034769;28;20049;-51
2023/09/08 04:51:38;;;;;;;12.73;4.07;;;27.20;99.90;;;;;;5034674;28;20416;-51
2023/09/08 04:54:03;;;;;;;5.40;3.13;;;27.10;99.90;;;;;;5034668;28;20432;-51
2023/09/08 04:56:29;;;;;;;7.80;3.22;;;27.20;99.90;;;;;;5034320;28;20107;-51
2023/09/08 04:58:55;;;;;;;7.82;2.92;;;27.20;99.90;;;;;;5034624;28;20469;-51
2023/09/08 05:01:21;;;;;;;11.30;3.50;;;27.20;99.90;;;;;;5023734;28;20057;-52
2023/09/08 05:03:47;;;;;;;16.40;3.60;;;27.20;99.90;;;;;;5013011;28;20083;-51
2023/09/08 05:06:13;;;;;;;11.20;4.00;;;27.20;99.90;;;;;;5013070;28;20026;-51
2023/09/08 05:08:39;;;;;;;10.30;4.13;;;27.20;99.90;;;;;;5011161;28;20448;-51
2023/09/08 05:11:05;;;;;;;6.32;3.70;;;27.20;99.90;;;;;;4994755;28;20101;-51
2023/09/08 05:13:31;;;;;;;8.15;3.22;;;27.20;99.90;;;;;;5012376;28;20026;-51
2023/09/08 05:16:00;;;;;;;10.00;3.38;;;27.20;99.90;;;;;;5012421;28;20076;-51
2023/09/08 05:18:28;;;;;;;10.98;3.85;;;27.20;99.90;;;;;;5012677;28;20053;-51
2023/09/08 05:20:54;;;;;;;4.72;2.97;;;27.10;99.90;;;;;;5012462;28;20052;-51
2023/09/08 05:23:20;;;;;;;5.28;4.13;;;27.10;99.90;;;;;;5014253;28;20018;-52
2023/09/08 05:25:46;;;;;;;6.38;3.63;;;27.10;99.90;;;;;;5014282;28;20033;-51
2023/09/08 05:28:11;;;;;;;9.70;3.70;;;27.00;99.90;;;;;;5014292;28;20026;-52
2023/09/08 05:30:37;;;;;;;8.27;4.85;;;27.00;99.90;;;;;;5014142;28;20102;-52
2023/09/08 05:33:03;;;;;;;5.55;3.67;;;27.00;99.90;;;;;;5014114;28;20072;-51
2023/09/08 05:35:29;;;;;;;7.35;2.90;;;27.00;99.90;;;;;;5014204;28;20464;-52
2023/09/08 05:37:54;;;;;;;9.43;4.13;;;26.90;99.90;;;;;;5014229;28;20022;-50
2023/09/08 05:40:23;;;;;;;5.10;3.63;;;26.90;99.90;;;;;;5013937;28;20064;-51
2023/09/08 05:42:49;;;;;;;7.25;3.60;;;27.00;99.90;;;;;;5012542;28;20489;-50
2023/09/08 05:45:15;;;;;;;9.50;3.63;;;26.90;99.90;;;;;;5013679;28;20026;-51
2023/09/08 05:47:41;;;;;;;6.13;3.33;;;27.00;99.90;;;;;;5013680;28;20029;-51
2023/09/08 05:50:07;;;;;;;12.05;3.65;;;27.00;99.90;;;;;;5012787;28;20026;-51
2023/09/08 05:52:33;;;;;;;6.38;3.50;;;27.00;99.90;;;;;;5013339;28;20038;-53
2023/09/08 05:54:59;;;;;;;9.95;3.15;;;27.00;99.90;;;;;;5013807;28;20026;-51
2023/09/08 05:57:24;;;;;;;5.47;2.70;;;27.00;99.90;;;;;;5013664;28;20363;-51
2023/09/08 05:59:50;;;;;;;7.93;4.32;;;27.00;99.90;;;;;;5013660;28;20080;-52
2023/09/08 06:02:16;;;;;;;5.38;3.70;;;27.10;99.90;;;;;;5013456;28;20053;-52
2023/09/08 06:04:42;;;;;;;7.22;2.80;;;27.10;99.90;;;;;;5013644;28;20026;-52
2023/09/08 06:07:07;;;;;;;9.85;4.00;;;27.10;99.90;;;;;;5013468;28;20072;-51
2023/09/08 06:09:33;;;;;;;6.93;3.75;;;27.10;99.90;;;;;;5013481;28;20483;-51
2023/09/08 06:11:59;;;;;;;8.20;4.22;;;27.10;99.90;;;;;;5013649;28;20041;-51
2023/09/08 06:14:25;;;;;;;9.70;3.80;;;27.00;99.90;;;;;;5013326;28;20034;-51
2023/09/08 06:16:50;;;;;;;9.52;5.00;;;27.00;99.90;;;;;;5013382;28;20091;-51
2023/09/08 06:19:16;;;;;;;10.32;5.90;;;27.10;99.90;;;;;;5012838;28;20033;-50
2023/09/08 06:21:43;;;;;;;14.68;5.68;;;27.00;99.90;;;;;;5013110;28;20037;-52
2023/09/08 06:24:08;;;;;;;10.13;3.60;;;27.10;99.90;;;;;;5011938;28;20028;-51
2023/09/08 06:26:34;;;;;;;10.18;4.70;;;27.10;99.90;;;;;;5013118;28;20458;-50
2023/09/08 06:29:00;;;;;;;11.52;6.15;;;27.10;99.90;;;;;;5013238;28;20040;-50
2023/09/08 06:31:26;;;;;;;8.70;4.78;;;27.10;99.90;;;;;;5013048;28;20125;-50
2023/09/08 06:33:52;;;;;;;8.77;4.82;;;27.10;99.90;;;;;;5011654;28;20026;-51
2023/09/08 06:36:19;;;;;;;9.68;5.90;;;27.10;99.90;;;;;;5012969;28;20319;-51
2023/09/08 06:38:44;;;;;;;13.27;7.35;;;27.10;99.90;;;;;;5012795;28;20026;-51
2023/09/08 06:41:11;;;;;;;11.55;4.10;;;27.20;99.90;;;;;;5012973;28;20036;-51
2023/09/08 06:43:37;;;;;;;12.35;4.32;;;27.20;99.90;;;;;;5012871;28;20061;-51
2023/09/08 06:46:04;;;;;;;6.40;3.38;;;27.20;99.90;;;;;;5012822;28;20053;-51
2023/09/08 06:48:30;;;;;;;8.52;3.58;;;27.20;99.90;;;;;;5013019;28;20026;-51
2023/09/08 06:50:56;;;;;;;12.27;4.32;;;27.20;99.90;;;;;;5012818;28;20108;-51
2023/09/08 06:53:24;;;;;;;11.10;4.20;;;27.20;99.90;;;;;;5012769;28;20390;-51
2023/09/08 06:55:51;;;;;;;7.38;5.00;;;27.20;99.90;;;;;;5012604;28;20083;-51
2023/09/08 06:58:16;;;;;;;8.30;4.20;;;27.20;99.90;;;;;;5012706;28;20021;-51
2023/09/08 07:00:42;;;;;;;7.90;4.68;;;27.10;99.90;;;;;;5012620;28;20410;-50
2023/09/08 07:03:08;;;;;;;8.10;5.20;;;27.10;99.90;;;;;;5012495;28;20022;-51
2023/09/08 07:05:35;;;;;;;9.98;3.95;;;27.20;99.90;;;;;;5012541;28;20032;-51
2023/09/08 07:08:01;;;;;;;10.18;3.97;;;27.20;99.90;;;;;;5012685;28;20357;-51
2023/09/08 07:10:27;;;;;;;6.57;3.70;;;27.20;99.90;;;;;;5012578;28;20045;-51
2023/09/08 07:12:53;;;;;;;7.57;3.55;;;27.20;99.90;;;;;;5011150;28;20026;-51
2023/09/08 07:15:19;;;;;;;10.55;3.38;;;27.20;99.90;;;;;;5012322;28;20045;-51
2023/09/08 07:17:44;;;;;;;5.22;3.05;;;27.20;99.90;;;;;;5012444;28;20029;-51
2023/09/08 07:20:10;;;;;;;7.85;3.90;;;27.20;99.90;;;;;;5012365;28;20022;-51
2023/09/08 07:22:36;;;;;;;10.90;3.75;;;27.20;99.90;;;;;;5012224;28;20103;-51
2023/09/08 07:25:02;;;;;;;8.38;3.83;;;27.20;99.90;;;;;;5011278;28;20441;-51
2023/09/08 07:27:28;;;;;;;7.22;4.20;;;27.20;99.90;;;;;;5012340;28;20029;-51
2023/09/08 07:29:54;;;;;;;7.95;3.20;;;27.20;99.90;;;;;;5012185;28;20030;-51
2023/09/08 07:32:20;;;;;;;6.28;3.97;;;27.20;99.90;;;;;;5015355;28;20060;-51
2023/09/08 07:34:52;;;;;;;7.63;3.72;;;27.20;99.90;;;;;;5016268;28;20433;-50
2023/09/08 07:37:17;;;;;;;11.43;3.47;;;27.20;99.90;;;;;;5016376;28;20053;-50
2023/09/08 07:39:43;;;;;;;7.45;3.00;;;27.20;99.90;;;;;;5016316;28;20025;-51
2023/09/08 07:42:09;;;;;;;9.35;3.33;;;27.20;99.90;;;;;;5016206;28;20029;-50
2023/09/08 07:44:35;;;;;;;4.25;2.90;;;27.20;99.90;;;;;;5016317;28;20029;-52
2023/09/08 07:47:00;;;;;;;4.28;2.60;;;27.20;99.90;;;;;;5016090;28;20106;-50
2023/09/08 07:49:26;;;;;;;6.60;2.78;;;27.30;99.90;;;;;;5014599;28;20108;-50
2023/09/08 07:51:52;;;;;;;7.13;3.92;;;27.20;99.90;;;;;;5015968;28;20025;-50
2023/09/08 07:54:18;;;;;;;8.80;4.63;;;27.30;99.90;;;;;;5014505;28;20145;-50
2023/09/08 07:56:44;;;;;;;7.85;3.13;;;27.30;99.90;;;;;;5015738;28;20498;-50
2023/09/08 07:59:09;;;;;;;8.68;3.08;;;27.30;99.90;;;;;;5015784;28;20018;-49
2023/09/08 08:01:35;;;;;;;5.57;2.45;;;27.30;99.90;;;;;;5015838;28;20517;-50
2023/09/08 08:04:03;;;;;;;5.55;2.70;;;27.30;99.90;;;;;;5015780;28;20021;-50
2023/09/08 08:06:29;;;;;;;9.63;3.13;;;27.30;99.90;;;;;;5015686;28;20014;-50
2023/09/08 08:08:56;;;;;;;6.57;3.03;;;27.40;99.90;;;;;;5015556;28;20060;-50
2023/09/08 08:11:22;;;;;;;6.28;3.10;;;27.40;99.90;;;;;;5014246;28;20022;-50
2023/09/08 08:13:47;;;;;;;9.65;4.00;;;27.40;99.90;;;;;;5015486;28;20109;-50
2023/09/08 08:16:13;;;;;;;6.22;3.15;;;27.40;99.90;;;;;;5015358;28;20041;-50
2023/09/08 08:18:39;;;;;;;7.75;3.58;;;27.40;99.90;;;;;;5014128;28;20415;-51
2023/09/08 08:21:05;;;;;;;9.93;3.45;;;27.50;99.90;;;;;;5015869;28;20036;-50
2023/09/08 08:23:32;;;;;;;5.35;2.47;;;27.50;99.90;;;;;;5015524;28;20026;-50
2023/09/08 08:25:58;;;;;;;9.00;3.50;;;27.50;99.90;;;;;;5015318;28;20457;-50
2023/09/08 08:28:27;;;;;;;5.05;4.00;;;27.60;99.90;;;;;;5015431;28;20057;-50
2023/09/08 08:30:52;;;;;;;8.02;4.35;;;27.60;99.90;;;;;;5015270;28;20101;-50
2023/09/08 08:33:20;;;;;;;5.85;3.53;;;27.60;99.90;;;;;;5015067;28;20109;-50
2023/09/08 08:35:50;;;;;;;6.25;2.80;;;27.60;99.90;;;;;;5015226;28;20053;-50
2023/09/08 08:38:16;;;;;;;4.93;2.75;;;27.60;99.90;;;;;;5015040;28;20067;-51
2023/09/08 08:40:42;;;;;;;8.35;3.78;;;27.60;99.90;;;;;;5015088;28;20109;-50
2023/09/08 08:43:08;;;;;;;6.88;3.00;;;27.60;99.90;;;;;;5013195;28;20152;-50
2023/09/08 08:45:35;;;;;;;6.40;3.40;;;27.60;99.90;;;;;;5014913;28;20076;-51
2023/09/08 08:48:02;;;;;;;;;;;27.60;99.90;;;;;;5015321;28;20390;-50
2023/09/08 08:50:28;;;;;;;8.27;2.45;;;27.60;99.90;;;;;;5014828;28;19913;-50
2023/09/08 08:52:53;;;;;;;4.65;2.85;;;27.60;99.90;;;;;;5013558;28;20529;-51
2023/09/08 08:55:19;;;;;;;6.25;2.53;;;27.60;99.90;;;;;;5014654;28;20145;-50
2023/09/08 08:57:46;;;;;;;7.82;3.40;;;27.70;99.90;;;;;;5013303;28;20394;-50
2023/09/08 09:00:12;;;;;;;8.07;3.15;;;27.70;99.90;;;;;;5014616;28;20065;-50
2023/09/08 09:02:43;;;;;;;5.30;3.17;;;27.70;99.90;;;;;;5014661;28;20038;-50
2023/09/08 09:05:13;;;;;;;4.90;3.28;;;27.70;99.90;;;;;;5013491;28;20062;-50
2023/09/08 09:07:41;;;;;;;6.10;3.53;;;27.70;99.90;;;;;;5015018;28;20382;-50
2023/09/08 09:10:07;;;;;;;7.75;3.30;;;27.70;99.90;;;;;;5014606;28;20061;-50
2023/09/08 09:12:33;;;;;;;9.13;2.72;;;27.80;99.90;;;;;;5013131;28;20030;-51
2023/09/08 09:15:00;;;;;;;4.43;2.65;;;27.80;99.90;;;;;;5014274;28;20097;-50
2023/09/08 09:17:26;;;;;;;6.93;3.10;;;27.80;99.90;;;;;;5014354;28;20060;-50
2023/09/08 09:20:12;;;;;;;5.95;2.60;;;27.90;99.90;;;;;;5014297;28;20061;-49
2023/09/08 09:22:38;;;;;;;7.35;2.63;;;27.90;99.90;;;;;;5014487;28;20363;-50
2023/09/08 09:25:07;;;;;;;5.72;2.60;;;27.90;99.90;;;;;;5014231;28;20028;-50
2023/09/08 09:27:45;;;;;;;6.63;2.95;;;27.90;99.90;;;;;;5014235;28;20033;-50
2023/09/08 09:30:11;;;;;;;3.72;2.47;;;27.90;99.90;;;;;;5014216;28;20018;-50
2023/09/08 09:32:37;;;;;;;7.50;2.65;;;28.00;99.90;;;;;;5014260;28;20026;-51
2023/09/08 09:35:03;;;;;;;5.75;3.15;;;28.00;99.90;;;;;;5012691;28;20026;-51
2023/09/08 09:37:30;;;;;;;4.05;2.72;;;28.00;99.90;;;;;;5013936;28;20196;-50
2023/09/08 09:39:56;;;;;;;6.83;2.83;;;28.00;99.90;;;;;;5013815;28;20072;-50
2023/09/08 09:42:21;;;;;;;5.57;2.75;;;28.10;99.90;;;;;;5013802;28;20050;-52
2023/09/08 09:44:49;;;;;;;5.95;2.90;;;28.00;99.90;;;;;;5013849;28;20050;-51
2023/09/08 09:47:15;;;;;;;3.40;2.35;;;28.10;99.90;;;;;;5012532;28;20143;-50
2023/09/08 09:49:45;;;;;;;6.38;3.00;;;28.10;99.90;;;;;;5014036;28;20088;-51
2023/09/08 09:52:20;;;;;;;11.02;2.80;;;28.20;99.90;;;;;;5013998;28;20125;-50
2023/09/08 09:54:47;;;;;;;6.05;2.75;;;28.20;99.90;;;;;;5012564;28;20084;-51
2023/09/08 09:57:14;;;;;;;5.68;2.63;;;28.20;99.90;;;;;;5012438;28;20030;-50
2023/09/08 09:59:43;;;;;;;5.18;2.50;;;28.20;99.90;;;;;;5013805;28;20021;-50
2023/09/08 10:02:12;;;;;;;8.90;2.58;;;28.20;99.90;;;;;;5013619;28;20046;-51
2023/09/08 10:04:41;;;;;;;6.20;3.00;;;28.20;99.90;;;;;;5013833;28;20022;-51
2023/09/08 10:07:07;;;;;;;7.43;2.70;;;28.20;99.90;;;;;;5013353;28;20026;-51
2023/09/08 10:09:33;;;;;;;5.28;2.97;;;28.10;99.90;;;;;;5013207;28;20018;-51
2023/09/08 10:12:05;;;;;;;15.45;2.85;;;28.10;99.90;;;;;;5013260;28;20029;-51
2023/09/08 10:14:41;;;;;;;8.05;3.97;;;28.10;99.90;;;;;;5013288;28;20025;-51
2023/09/08 10:17:25;;;;;;;4.75;2.97;;;28.10;99.90;;;;;;5013237;28;20029;-51
2023/09/08 10:19:51;;;;;;;7.68;3.15;;;28.10;99.90;;;;;;5013215;28;20512;-50
2023/09/08 10:22:24;;;;;;;8.13;3.65;;;28.10;99.90;;;;;;5013291;28;20041;-50
2023/09/08 10:24:53;;;;;;;6.07;2.92;;;28.10;99.90;;;;;;5011988;28;20485;-52
2023/09/08 10:27:21;;;;;;;9.45;3.58;;;28.10;99.90;;;;;;5013134;28;20030;-50
2023/09/08 10:29:48;;;;;;;8.13;2.63;;;28.10;99.90;;;;;;5012865;28;20382;-50
2023/09/08 10:32:15;;;;;;;9.35;3.10;;;28.10;99.90;;;;;;5013136;28;20014;-50
2023/09/08 10:34:41;;;;;;;10.93;3.88;;;28.10;99.90;;;;;;5013125;28;20030;-50
2023/09/08 10:37:21;;;;;;;7.68;2.78;;;28.10;99.90;;;;;;5012871;28;20113;-50
2023/09/08 10:39:47;;;;;;;6.40;3.05;;;28.10;99.90;;;;;;5012866;28;20429;-50
2023/09/08 10:42:25;;;;;;;8.10;2.80;;;28.10;99.90;;;;;;5012935;28;20113;-51
2023/09/08 10:44:58;;;;;;;7.38;4.05;;;28.10;99.90;;;;;;5012772;28;20034;-50
2023/09/08 10:47:41;;;;;;;10.15;3.28;;;28.20;99.90;;;;;;5012750;28;20386;-51
2023/09/08 10:50:08;;;;;;;8.73;3.45;;;28.10;99.90;;;;;;5012865;28;20105;-51
2023/09/08 10:52:35;;;;;;;8.77;2.97;;;28.20;99.90;;;;;;5011494;28;20022;-50
2023/09/08 10:55:01;;;;;;;8.23;3.53;;;28.20;99.90;;;;;;5011432;28;20061;-51
2023/09/08 10:57:27;;;;;;;6.88;2.88;;;28.20;99.90;;;;;;5012570;28;20101;-51
2023/09/08 10:59:54;;;;;;;5.95;3.40;;;28.20;99.90;;;;;;5012574;28;20563;-50
2023/09/08 11:02:44;;;;;;;5.68;2.40;;;28.30;99.90;;;;;;5011046;28;20466;-49
2023/09/08 11:05:14;;;;;;;7.93;3.25;;;28.30;99.90;;;;;;5012418;28;20030;-51
2023/09/08 11:07:42;;;;;;;9.50;2.92;;;28.30;99.90;;;;;;5012181;28;20018;-51
2023/09/08 11:10:09;;;;;;;8.20;2.60;;;28.30;99.90;;;;;;5012440;28;20409;-51
2023/09/08 11:12:35;;;;;;;6.28;2.65;;;28.30;99.90;;;;;;5012462;28;20026;-51
2023/09/08 11:15:08;;;;;;;8.02;2.85;;;28.30;99.90;;;;;;5012218;28;20482;-50
2023/09/08 11:17:39;;;;;;;7.75;3.33;;;28.30;99.90;;;;;;5012232;28;20100;-50
2023/09/08 11:20:10;;;;;;;8.02;2.75;;;28.30;99.90;;;;;;5011013;28;20017;-50
2023/09/08 11:22:40;;;;;;;10.60;3.25;;;28.30;99.90;;;;;;5012343;28;20436;-50
2023/09/08 11:25:08;;;;;;;8.60;3.15;;;28.20;99.90;;;;;;5012407;28;20477;-50
2023/09/08 11:27:34;;;;;;;5.78;2.75;;;28.20;99.90;;;;;;5012304;28;20026;-51
2023/09/08 11:30:00;;;;;;;7.15;3.13;;;28.20;99.90;;;;;;5012242;28;20030;-51
2023/09/08 11:32:32;;;;;;;8.70;3.55;;;28.10;99.90;;;;;;5012113;28;20057;-50
2023/09/08 11:35:09;;;;;;;3.67;2.60;;;28.10;99.90;;;;;;5011934;28;20041;-50
2023/09/08 11:37:39;;;;;;;7.05;2.70;;;28.10;99.90;;;;;;5012168;28;20049;-50
2023/09/08 11:40:11;;;;;;;9.50;3.33;;;28.10;99.90;;;;;;5012279;28;20109;-50
2023/09/08 11:42:45;;;;;;;5.85;3.13;;;28.10;99.90;;;;;;5011945;28;20033;-50
2023/09/08 11:45:13;;;;;;;8.80;3.25;;;28.10;99.90;;;;;;5011892;28;20045;-51
2023/09/08 11:47:41;;;;;;;7.03;2.78;;;28.20;99.90;;;;;;5012182;28;20140;-50
2023/09/08 11:50:08;;;;;;;4.70;2.53;;;28.20;99.90;;;;;;5011982;28;20105;-50
2023/09/08 11:52:34;;;;;;;7.47;2.97;;;28.20;99.90;;;;;;5012136;28;20018;-50
2023/09/08 11:55:00;;;;;;;5.78;3.28;;;28.20;99.90;;;;;;5011718;28;20164;-50
2023/09/08 11:57:26;;;;;;;7.78;3.00;;;28.20;99.90;;;;;;5011874;28;20034;-50
2023/09/08 11:59:52;;;;;;;8.93;3.13;;;28.20;99.90;;;;;;5011908;28;20030;-49
2023/09/08 12:02:18;;;;;;;5.57;2.70;;;28.20;99.90;;;;;;5012055;28;20144;-50
2023/09/08 12:04:45;;;;;;;11.02;3.65;;;28.20;99.90;;;;;;5012097;28;20034;-50
2023/09/08 12:07:19;;;;;;;10.23;4.22;;;28.20;99.90;;;;;;5011845;28;20088;-50
2023/09/08 12:09:45;;;;;;;6.10;2.97;;;28.10;99.90;;;;;;5013336;28;20030;-49
2023/09/08 12:12:12;;;;;;;7.93;2.65;;;28.10;99.90;;;;;;5031511;28;20053;-50
2023/09/08 12:14:42;;;;;;;6.30;3.33;;;28.00;99.90;;;;;;5031514;28;20030;-50
2023/09/08 12:17:08;;;;;;;7.68;3.70;;;27.90;99.90;;;;;;5030309;28;20029;-50
2023/09/08 12:19:36;;;;;;;6.50;3.22;;;27.90;99.90;;;;;;5033986;28;20025;-50
2023/09/08 12:22:04;;;;;;;5.57;2.85;;;27.90;99.90;;;;;;5034410;28;20602;-50
2023/09/08 12:24:56;;;;;;;10.57;4.28;;;27.90;99.90;;;;;;5032686;28;20028;-50
2023/09/08 12:27:23;;;;;;;8.73;3.00;;;27.80;99.90;;;;;;5036186;28;20036;-49
2023/09/08 12:30:00;;;;;;;8.93;3.50;;;27.90;99.90;;;;;;5034780;28;20385;-50
2023/09/08 12:32:28;;;;;;;10.73;4.80;;;27.90;99.90;;;;;;5039839;28;20032;-50
2023/09/08 12:34:54;;;;;;;17.60;6.55;;;27.90;99.90;;;;;;5050789;28;20499;-50
2023/09/08 12:37:27;;;;;;;7.20;3.45;;;27.90;99.90;;;;;;5048600;28;20032;-52
2023/09/08 12:39:53;;;;;;;9.15;3.28;;;28.00;99.90;;;;;;5033240;28;20491;-50
2023/09/08 12:42:20;;;;;;;4.63;3.05;;;27.90;99.90;;;;;;5035993;28;20036;-50
2023/09/08 12:44:47;;;;;;;13.30;4.15;;;28.00;99.90;;;;;;5035803;28;20036;-50